sensor_id;sensor_type;location;lat;lon;timestamp;P1;durP1;ratioP1;P2;durP2;ratioP2
47367;SDS011;34646;47.964;7.982;2023-05-02T00:02:00;3.37;;;2.60;;
47367;SDS011;34646;47.964;7.982;2023-05-02T00:08:01;3.47;;;2.70;;
47367;SDS011;34646;47.964;7.982;2023-05-02T00:14:02;2.50;;;2.30;;
47367;SDS011;34646;47.964;7.982;2023-05-02T00:20:03;3.45;;;2.72;;
47367;SDS011;34646;47.964;7.982;2023-05-02T00:26:07;2.70;;;2.30;;
47367;SDS011;34646;47.964;7.982;2023-05-02T00:32:08;5.05;;;2.67;;
47367;SDS011;34646;47.964;7.982;2023-05-02T00:38:09;3.07;;;2.63;;
47367;SDS011;34646;47.964;7.982;2023-05-02T00:44:11;2.97;;;2.45;;
47367;SDS011;34646;47.964;7.982;2023-05-02T00:50:12;3.30;;;2.17;;
47367;SDS011;34646;47.964;7.982;2023-05-02T00:56:13;3.57;;;2.67;;
47367;SDS011;34646;47.964;7.982;2023-05-02T01:02:31;2.60;;;2.28;;
47367;SDS011;34646;47.964;7.982;2023-05-02T01:08:46;3.00;;;2.63;;
47367;SDS011;34646;47.964;7.982;2023-05-02T01:14:52;3.95;;;2.65;;
47367;SDS011;34646;47.964;7.982;2023-05-02T01:21:02;2.83;;;2.42;;
47367;SDS011;34646;47.964;7.982;2023-05-02T01:27:10;4.20;;;2.50;;
47367;SDS011;34646;47.964;7.982;2023-05-02T01:33:21;4.43;;;2.45;;
47367;SDS011;34646;47.964;7.982;2023-05-02T01:39:24;3.08;;;2.50;;
47367;SDS011;34646;47.964;7.982;2023-05-02T01:45:25;3.27;;;2.57;;
47367;SDS011;34646;47.964;7.982;2023-05-02T01:51:29;2.92;;;2.65;;
47367;SDS011;34646;47.964;7.982;2023-05-02T01:57:35;2.80;;;2.30;;
47367;SDS011;34646;47.964;7.982;2023-05-02T02:03:38;2.50;;;2.13;;
47367;SDS011;34646;47.964;7.982;2023-05-02T02:09:40;3.45;;;2.40;;
47367;SDS011;34646;47.964;7.982;2023-05-02T02:15:41;2.65;;;2.22;;
47367;SDS011;34646;47.964;7.982;2023-05-02T02:21:50;2.88;;;2.58;;
47367;SDS011;34646;47.964;7.982;2023-05-02T02:27:51;3.03;;;2.47;;
47367;SDS011;34646;47.964;7.982;2023-05-02T02:33:54;2.92;;;2.33;;
47367;SDS011;34646;47.964;7.982;2023-05-02T02:46:47;3.28;;;2.22;;
47367;SDS011;34646;47.964;7.982;2023-05-02T02:58:59;2.80;;;2.35;;
47367;SDS011;34646;47.964;7.982;2023-05-02T03:05:05;2.60;;;2.22;;
47367;SDS011;34646;47.964;7.982;2023-05-02T03:11:08;2.83;;;2.40;;
47367;SDS011;34646;47.964;7.982;2023-05-02T03:17:10;3.08;;;2.72;;
47367;SDS011;34646;47.964;7.982;2023-05-02T03:23:11;3.45;;;2.08;;
47367;SDS011;34646;47.964;7.982;2023-05-02T03:29:13;2.80;;;2.30;;
47367;SDS011;34646;47.964;7.982;2023-05-02T03:35:16;3.35;;;2.25;;
47367;SDS011;34646;47.964;7.982;2023-05-02T03:41:19;3.35;;;2.45;;
47367;SDS011;34646;47.964;7.982;2023-05-02T03:47:26;3.33;;;2.10;;
47367;SDS011;34646;47.964;7.982;2023-05-02T03:53:28;2.92;;;2.25;;
47367;SDS011;34646;47.964;7.982;2023-05-02T03:59:32;2.90;;;2.10;;
47367;SDS011;34646;47.964;7.982;2023-05-02T04:05:37;2.67;;;2.40;;
47367;SDS011;34646;47.964;7.982;2023-05-02T04:11:38;4.07;;;2.38;;
47367;SDS011;34646;47.964;7.982;2023-05-02T04:17:41;2.88;;;2.10;;
47367;SDS011;34646;47.964;7.982;2023-05-02T04:23:44;3.67;;;2.55;;
47367;SDS011;34646;47.964;7.982;2023-05-02T04:29:48;3.83;;;2.50;;
47367;SDS011;34646;47.964;7.982;2023-05-02T04:35:50;3.03;;;2.00;;
47367;SDS011;34646;47.964;7.982;2023-05-02T04:41:53;2.72;;;2.33;;
47367;SDS011;34646;47.964;7.982;2023-05-02T04:47:56;2.78;;;2.28;;
47367;SDS011;34646;47.964;7.982;2023-05-02T04:53:56;3.20;;;2.70;;
47367;SDS011;34646;47.964;7.982;2023-05-02T04:59:58;3.33;;;2.88;;
47367;SDS011;34646;47.964;7.982;2023-05-02T05:05:59;5.07;;;3.33;;
47367;SDS011;34646;47.964;7.982;2023-05-02T05:12:02;3.65;;;2.60;;
47367;SDS011;34646;47.964;7.982;2023-05-02T05:18:08;2.60;;;2.22;;
47367;SDS011;34646;47.964;7.982;2023-05-02T05:24:10;3.40;;;2.22;;
47367;SDS011;34646;47.964;7.982;2023-05-02T05:30:11;7.33;;;3.00;;
47367;SDS011;34646;47.964;7.982;2023-05-02T05:36:14;6.75;;;2.20;;
47367;SDS011;34646;47.964;7.982;2023-05-02T05:42:15;5.13;;;2.40;;
47367;SDS011;34646;47.964;7.982;2023-05-02T05:48:19;7.43;;;2.20;;
47367;SDS011;34646;47.964;7.982;2023-05-02T05:54:20;3.67;;;2.27;;
47367;SDS011;34646;47.964;7.982;2023-05-02T06:00:21;3.58;;;2.22;;
47367;SDS011;34646;47.964;7.982;2023-05-02T06:06:25;2.75;;;1.85;;
47367;SDS011;34646;47.964;7.982;2023-05-02T06:12:26;3.05;;;2.30;;
47367;SDS011;34646;47.964;7.982;2023-05-02T06:18:27;3.53;;;2.45;;
47367;SDS011;34646;47.964;7.982;2023-05-02T06:24:28;8.43;;;2.40;;
47367;SDS011;34646;47.964;7.982;2023-05-02T06:30:30;3.72;;;2.22;;
47367;SDS011;34646;47.964;7.982;2023-05-02T06:36:31;2.63;;;1.80;;
47367;SDS011;34646;47.964;7.982;2023-05-02T06:42:32;5.43;;;2.20;;
47367;SDS011;34646;47.964;7.982;2023-05-02T06:48:36;2.57;;;2.07;;
47367;SDS011;34646;47.964;7.982;2023-05-02T06:54:37;4.13;;;2.08;;
47367;SDS011;34646;47.964;7.982;2023-05-02T07:00:39;3.75;;;2.03;;
47367;SDS011;34646;47.964;7.982;2023-05-02T07:06:40;3.80;;;1.80;;
47367;SDS011;34646;47.964;7.982;2023-05-02T07:12:41;3.67;;;2.20;;
47367;SDS011;34646;47.964;7.982;2023-05-02T07:18:44;2.87;;;2.03;;
47367;SDS011;34646;47.964;7.982;2023-05-02T07:24:45;6.72;;;2.20;;
47367;SDS011;34646;47.964;7.982;2023-05-02T07:30:46;5.87;;;2.30;;
47367;SDS011;34646;47.964;7.982;2023-05-02T07:36:50;2.13;;;1.90;;
47367;SDS011;34646;47.964;7.982;2023-05-02T07:42:51;2.53;;;1.90;;
47367;SDS011;34646;47.964;7.982;2023-05-02T07:48:52;2.43;;;1.77;;
47367;SDS011;34646;47.964;7.982;2023-05-02T07:54:53;3.00;;;2.30;;
47367;SDS011;34646;47.964;7.982;2023-05-02T08:00:54;4.28;;;1.95;;
47367;SDS011;34646;47.964;7.982;2023-05-02T08:06:55;3.97;;;2.00;;
47367;SDS011;34646;47.964;7.982;2023-05-02T08:12:56;2.57;;;2.20;;
47367;SDS011;34646;47.964;7.982;2023-05-02T08:18:57;2.50;;;1.83;;
47367;SDS011;34646;47.964;7.982;2023-05-02T08:24:58;2.40;;;1.73;;
47367;SDS011;34646;47.964;7.982;2023-05-02T08:30:59;4.33;;;1.90;;
47367;SDS011;34646;47.964;7.982;2023-05-02T08:37:00;2.47;;;1.63;;
47367;SDS011;34646;47.964;7.982;2023-05-02T08:43:01;2.70;;;2.00;;
47367;SDS011;34646;47.964;7.982;2023-05-02T08:49:03;2.03;;;1.80;;
47367;SDS011;34646;47.964;7.982;2023-05-02T08:55:05;1.95;;;1.75;;
47367;SDS011;34646;47.964;7.982;2023-05-02T09:01:16;2.72;;;2.03;;
47367;SDS011;34646;47.964;7.982;2023-05-02T09:07:18;2.37;;;1.93;;
47367;SDS011;34646;47.964;7.982;2023-05-02T09:13:33;3.07;;;2.13;;
47367;SDS011;34646;47.964;7.982;2023-05-02T09:19:34;2.15;;;1.70;;
47367;SDS011;34646;47.964;7.982;2023-05-02T09:25:35;2.30;;;1.90;;
47367;SDS011;34646;47.964;7.982;2023-05-02T09:31:37;2.70;;;2.10;;
47367;SDS011;34646;47.964;7.982;2023-05-02T09:37:38;2.03;;;1.80;;
47367;SDS011;34646;47.964;7.982;2023-05-02T09:43:40;3.30;;;1.90;;
47367;SDS011;34646;47.964;7.982;2023-05-02T09:49:42;4.18;;;1.90;;
47367;SDS011;34646;47.964;7.982;2023-05-02T09:55:43;2.10;;;1.50;;
47367;SDS011;34646;47.964;7.982;2023-05-02T10:01:45;2.30;;;1.60;;
47367;SDS011;34646;47.964;7.982;2023-05-02T10:07:46;2.33;;;1.73;;
47367;SDS011;34646;47.964;7.982;2023-05-02T10:13:47;3.80;;;2.10;;
47367;SDS011;34646;47.964;7.982;2023-05-02T10:19:53;2.33;;;1.70;;
47367;SDS011;34646;47.964;7.982;2023-05-02T10:25:58;2.58;;;2.10;;
47367;SDS011;34646;47.964;7.982;2023-05-02T10:31:59;2.83;;;2.03;;
47367;SDS011;34646;47.964;7.982;2023-05-02T10:38:02;2.70;;;2.00;;
47367;SDS011;34646;47.964;7.982;2023-05-02T10:44:03;2.10;;;1.80;;
47367;SDS011;34646;47.964;7.982;2023-05-02T10:50:07;2.50;;;1.90;;
47367;SDS011;34646;47.964;7.982;2023-05-02T11:20:29;3.10;;;1.45;;
47367;SDS011;34646;47.964;7.982;2023-05-02T11:26:31;3.83;;;1.60;;
47367;SDS011;34646;47.964;7.982;2023-05-02T11:38:45;2.25;;;2.00;;
47367;SDS011;34646;47.964;7.982;2023-05-02T11:44:56;2.23;;;1.70;;
47367;SDS011;34646;47.964;7.982;2023-05-02T11:50:58;1.98;;;1.70;;
47367;SDS011;34646;47.964;7.982;2023-05-02T11:57:03;2.08;;;1.80;;
47367;SDS011;34646;47.964;7.982;2023-05-02T12:03:04;2.17;;;1.83;;
47367;SDS011;34646;47.964;7.982;2023-05-02T12:09:07;2.38;;;1.90;;
47367;SDS011;34646;47.964;7.982;2023-05-02T12:15:18;3.17;;;2.10;;
47367;SDS011;34646;47.964;7.982;2023-05-02T12:21:19;2.40;;;1.77;;
47367;SDS011;34646;47.964;7.982;2023-05-02T12:27:21;10.63;;;2.70;;
47367;SDS011;34646;47.964;7.982;2023-05-02T12:33:22;4.18;;;2.30;;
47367;SDS011;34646;47.964;7.982;2023-05-02T12:45:39;2.95;;;2.47;;
47367;SDS011;34646;47.964;7.982;2023-05-02T12:51:40;4.80;;;2.53;;
47367;SDS011;34646;47.964;7.982;2023-05-02T12:57:42;4.38;;;2.35;;
47367;SDS011;34646;47.964;7.982;2023-05-02T13:03:44;6.78;;;2.40;;
47367;SDS011;34646;47.964;7.982;2023-05-02T13:09:45;3.58;;;2.60;;
47367;SDS011;34646;47.964;7.982;2023-05-02T13:15:46;3.53;;;2.85;;
47367;SDS011;34646;47.964;7.982;2023-05-02T13:21:48;3.00;;;2.43;;
47367;SDS011;34646;47.964;7.982;2023-05-02T13:27:49;3.75;;;2.53;;
47367;SDS011;34646;47.964;7.982;2023-05-02T13:33:50;3.37;;;2.97;;
47367;SDS011;34646;47.964;7.982;2023-05-02T13:39:51;3.80;;;2.80;;
47367;SDS011;34646;47.964;7.982;2023-05-02T13:45:52;5.03;;;2.80;;
47367;SDS011;34646;47.964;7.982;2023-05-02T13:51:53;3.90;;;2.80;;
47367;SDS011;34646;47.964;7.982;2023-05-02T13:57:54;7.13;;;2.80;;
47367;SDS011;34646;47.964;7.982;2023-05-02T14:03:55;3.60;;;2.33;;
47367;SDS011;34646;47.964;7.982;2023-05-02T14:09:56;3.13;;;2.40;;
47367;SDS011;34646;47.964;7.982;2023-05-02T14:15:57;4.63;;;3.00;;
47367;SDS011;34646;47.964;7.982;2023-05-02T14:21:59;4.65;;;2.60;;
47367;SDS011;34646;47.964;7.982;2023-05-02T14:28:00;5.43;;;2.67;;
47367;SDS011;34646;47.964;7.982;2023-05-02T14:34:01;3.35;;;2.25;;
47367;SDS011;34646;47.964;7.982;2023-05-02T14:40:03;3.33;;;2.37;;
47367;SDS011;34646;47.964;7.982;2023-05-02T14:46:04;4.70;;;2.33;;
47367;SDS011;34646;47.964;7.982;2023-05-02T14:52:05;4.38;;;2.58;;
47367;SDS011;34646;47.964;7.982;2023-05-02T14:58:06;8.27;;;2.40;;
47367;SDS011;34646;47.964;7.982;2023-05-02T15:04:10;10.68;;;2.67;;
47367;SDS011;34646;47.964;7.982;2023-05-02T15:10:11;3.57;;;2.73;;
47367;SDS011;34646;47.964;7.982;2023-05-02T15:16:13;5.10;;;2.67;;
47367;SDS011;34646;47.964;7.982;2023-05-02T15:22:14;5.75;;;2.47;;
47367;SDS011;34646;47.964;7.982;2023-05-02T15:28:37;6.03;;;2.85;;
47367;SDS011;34646;47.964;7.982;2023-05-02T15:34:38;7.73;;;2.50;;
47367;SDS011;34646;47.964;7.982;2023-05-02T15:40:39;5.97;;;2.63;;
47367;SDS011;34646;47.964;7.982;2023-05-02T15:46:40;2.77;;;2.47;;
47367;SDS011;34646;47.964;7.982;2023-05-02T15:52:45;6.05;;;2.83;;
47367;SDS011;34646;47.964;7.982;2023-05-02T15:58:46;3.90;;;2.45;;
47367;SDS011;34646;47.964;7.982;2023-05-02T16:04:47;7.53;;;3.10;;
47367;SDS011;34646;47.964;7.982;2023-05-02T16:10:48;5.50;;;3.70;;
47367;SDS011;34646;47.964;7.982;2023-05-02T16:16:50;7.60;;;3.33;;
47367;SDS011;34646;47.964;7.982;2023-05-02T16:22:51;8.30;;;4.20;;
47367;SDS011;34646;47.964;7.982;2023-05-02T16:28:51;8.47;;;4.90;;
47367;SDS011;34646;47.964;7.982;2023-05-02T16:34:52;9.17;;;4.97;;
47367;SDS011;34646;47.964;7.982;2023-05-02T16:40:53;8.47;;;5.47;;
47367;SDS011;34646;47.964;7.982;2023-05-02T16:46:54;7.87;;;5.23;;
47367;SDS011;34646;47.964;7.982;2023-05-02T16:52:55;8.60;;;5.40;;
47367;SDS011;34646;47.964;7.982;2023-05-02T16:58:56;7.47;;;4.77;;
47367;SDS011;34646;47.964;7.982;2023-05-02T17:04:57;6.97;;;4.70;;
47367;SDS011;34646;47.964;7.982;2023-05-02T17:10:58;8.93;;;4.27;;
47367;SDS011;34646;47.964;7.982;2023-05-02T17:16:59;7.53;;;4.53;;
47367;SDS011;34646;47.964;7.982;2023-05-02T17:23:00;7.75;;;4.60;;
47367;SDS011;34646;47.964;7.982;2023-05-02T17:29:02;7.25;;;4.18;;
47367;SDS011;34646;47.964;7.982;2023-05-02T17:35:03;12.07;;;4.63;;
47367;SDS011;34646;47.964;7.982;2023-05-02T17:41:04;13.85;;;4.90;;
47367;SDS011;34646;47.964;7.982;2023-05-02T17:47:05;6.20;;;3.80;;
47367;SDS011;34646;47.964;7.982;2023-05-02T17:53:07;6.80;;;3.85;;
47367;SDS011;34646;47.964;7.982;2023-05-02T17:59:08;10.15;;;4.70;;
47367;SDS011;34646;47.964;7.982;2023-05-02T18:05:10;8.25;;;4.00;;
47367;SDS011;34646;47.964;7.982;2023-05-02T18:11:12;6.93;;;3.40;;
47367;SDS011;34646;47.964;7.982;2023-05-02T18:17:14;5.38;;;3.72;;
47367;SDS011;34646;47.964;7.982;2023-05-02T18:23:19;9.25;;;4.10;;
47367;SDS011;34646;47.964;7.982;2023-05-02T18:29:20;11.03;;;4.20;;
47367;SDS011;34646;47.964;7.982;2023-05-02T18:35:21;6.90;;;4.03;;
47367;SDS011;34646;47.964;7.982;2023-05-02T18:41:22;11.50;;;4.00;;
47367;SDS011;34646;47.964;7.982;2023-05-02T18:47:23;8.50;;;3.65;;
47367;SDS011;34646;47.964;7.982;2023-05-02T18:53:24;10.27;;;3.77;;
47367;SDS011;34646;47.964;7.982;2023-05-02T18:59:25;15.27;;;4.27;;
47367;SDS011;34646;47.964;7.982;2023-05-02T19:05:26;7.63;;;3.73;;
47367;SDS011;34646;47.964;7.982;2023-05-02T19:11:27;9.57;;;4.00;;
47367;SDS011;34646;47.964;7.982;2023-05-02T19:17:29;10.63;;;4.10;;
47367;SDS011;34646;47.964;7.982;2023-05-02T19:23:30;6.97;;;4.07;;
47367;SDS011;34646;47.964;7.982;2023-05-02T19:29:31;7.93;;;3.77;;
47367;SDS011;34646;47.964;7.982;2023-05-02T19:35:32;4.87;;;3.33;;
47367;SDS011;34646;47.964;7.982;2023-05-02T19:41:34;6.78;;;3.97;;
47367;SDS011;34646;47.964;7.982;2023-05-02T19:47:35;8.98;;;3.80;;
47367;SDS011;34646;47.964;7.982;2023-05-02T19:53:37;11.48;;;3.67;;
47367;SDS011;34646;47.964;7.982;2023-05-02T19:59:38;6.30;;;3.60;;
47367;SDS011;34646;47.964;7.982;2023-05-02T20:05:39;8.75;;;3.97;;
47367;SDS011;34646;47.964;7.982;2023-05-02T20:11:40;7.37;;;3.80;;
47367;SDS011;34646;47.964;7.982;2023-05-02T20:17:41;5.63;;;3.30;;
47367;SDS011;34646;47.964;7.982;2023-05-02T20:23:42;7.83;;;3.60;;
47367;SDS011;34646;47.964;7.982;2023-05-02T20:35:44;6.28;;;3.75;;
47367;SDS011;34646;47.964;7.982;2023-05-02T20:41:45;6.90;;;3.67;;
47367;SDS011;34646;47.964;7.982;2023-05-02T20:47:48;6.47;;;3.50;;
47367;SDS011;34646;47.964;7.982;2023-05-02T20:53:49;5.75;;;3.47;;
47367;SDS011;34646;47.964;7.982;2023-05-02T20:59:51;4.80;;;3.40;;
47367;SDS011;34646;47.964;7.982;2023-05-02T21:05:52;7.90;;;3.92;;
47367;SDS011;34646;47.964;7.982;2023-05-02T21:11:54;5.75;;;3.35;;
47367;SDS011;34646;47.964;7.982;2023-05-02T21:18:01;3.80;;;3.20;;
47367;SDS011;34646;47.964;7.982;2023-05-02T21:24:03;7.45;;;3.67;;
47367;SDS011;34646;47.964;7.982;2023-05-02T21:30:04;3.93;;;3.10;;
47367;SDS011;34646;47.964;7.982;2023-05-02T21:36:05;4.38;;;3.50;;
47367;SDS011;34646;47.964;7.982;2023-05-02T21:42:06;5.20;;;3.47;;
47367;SDS011;34646;47.964;7.982;2023-05-02T21:48:07;4.03;;;3.27;;
47367;SDS011;34646;47.964;7.982;2023-05-02T21:54:08;6.63;;;3.63;;
47367;SDS011;34646;47.964;7.982;2023-05-02T22:00:09;4.73;;;3.57;;
47367;SDS011;34646;47.964;7.982;2023-05-02T22:06:12;6.82;;;3.25;;
47367;SDS011;34646;47.964;7.982;2023-05-02T22:12:13;4.82;;;3.13;;
47367;SDS011;34646;47.964;7.982;2023-05-02T22:18:14;6.73;;;3.50;;
47367;SDS011;34646;47.964;7.982;2023-05-02T22:24:16;5.75;;;3.40;;
47367;SDS011;34646;47.964;7.982;2023-05-02T22:30:18;4.17;;;2.87;;
47367;SDS011;34646;47.964;7.982;2023-05-02T22:36:18;3.85;;;3.05;;
47367;SDS011;34646;47.964;7.982;2023-05-02T22:42:20;4.20;;;3.33;;
47367;SDS011;34646;47.964;7.982;2023-05-02T22:48:21;3.35;;;2.63;;
47367;SDS011;34646;47.964;7.982;2023-05-02T22:54:22;4.30;;;3.27;;
47367;SDS011;34646;47.964;7.982;2023-05-02T23:00:23;3.90;;;2.97;;
47367;SDS011;34646;47.964;7.982;2023-05-02T23:06:24;4.37;;;2.83;;
47367;SDS011;34646;47.964;7.982;2023-05-02T23:12:27;5.20;;;3.05;;
47367;SDS011;34646;47.964;7.982;2023-05-02T23:18:28;4.43;;;3.23;;
47367;SDS011;34646;47.964;7.982;2023-05-02T23:24:29;4.43;;;3.33;;
47367;SDS011;34646;47.964;7.982;2023-05-02T23:30:30;4.32;;;3.33;;
47367;SDS011;34646;47.964;7.982;2023-05-02T23:36:32;3.50;;;2.65;;
47367;SDS011;34646;47.964;7.982;2023-05-02T23:42:33;6.50;;;3.35;;
47367;SDS011;34646;47.964;7.982;2023-05-02T23:48:36;4.60;;;3.88;;
47367;SDS011;34646;47.964;7.982;2023-05-02T23:54:37;3.70;;;2.87;;
